sensor_id;sensor_type;location;lat;lon;timestamp;P1;durP1;ratioP1;P2;durP2;ratioP2
27201;SDS011;14717;46.924;15.474;2023-07-09T00:02:15;9.40;;;3.65;;
27201;SDS011;14717;46.924;15.474;2023-07-09T00:04:41;7.30;;;3.83;;
27201;SDS011;14717;46.924;15.474;2023-07-09T00:09:55;7.50;;;3.65;;
27201;SDS011;14717;46.924;15.474;2023-07-09T00:12:21;6.18;;;3.78;;
27201;SDS011;14717;46.924;15.474;2023-07-09T00:14:47;8.68;;;4.35;;
27201;SDS011;14717;46.924;15.474;2023-07-09T00:17:18;7.03;;;4.47;;
27201;SDS011;14717;46.924;15.474;2023-07-09T00:19:50;8.23;;;4.25;;
27201;SDS011;14717;46.924;15.474;2023-07-09T00:22:17;7.78;;;4.20;;
27201;SDS011;14717;46.924;15.474;2023-07-09T00:24:47;7.25;;;4.10;;
27201;SDS011;14717;46.924;15.474;2023-07-09T00:27:16;10.88;;;4.47;;
27201;SDS011;14717;46.924;15.474;2023-07-09T00:29:43;6.55;;;4.22;;
27201;SDS011;14717;46.924;15.474;2023-07-09T00:32:13;5.80;;;4.18;;
27201;SDS011;14717;46.924;15.474;2023-07-09T00:34:41;9.02;;;4.05;;
27201;SDS011;14717;46.924;15.474;2023-07-09T00:37:19;7.03;;;4.20;;
27201;SDS011;14717;46.924;15.474;2023-07-09T00:39:46;9.65;;;3.97;;
27201;SDS011;14717;46.924;15.474;2023-07-09T00:42:16;7.05;;;4.13;;
27201;SDS011;14717;46.924;15.474;2023-07-09T00:44:48;7.53;;;4.05;;
27201;SDS011;14717;46.924;15.474;2023-07-09T00:50:11;9.48;;;4.45;;
27201;SDS011;14717;46.924;15.474;2023-07-09T00:52:54;6.75;;;4.25;;
27201;SDS011;14717;46.924;15.474;2023-07-09T00:55:31;6.90;;;3.97;;
27201;SDS011;14717;46.924;15.474;2023-07-09T00:58:03;6.70;;;3.88;;
27201;SDS011;14717;46.924;15.474;2023-07-09T01:00:33;10.00;;;4.15;;
27201;SDS011;14717;46.924;15.474;2023-07-09T01:03:11;8.13;;;4.32;;
27201;SDS011;14717;46.924;15.474;2023-07-09T01:05:42;6.45;;;4.25;;
27201;SDS011;14717;46.924;15.474;2023-07-09T01:08:08;7.28;;;4.10;;
27201;SDS011;14717;46.924;15.474;2023-07-09T01:10:35;8.18;;;4.32;;
27201;SDS011;14717;46.924;15.474;2023-07-09T01:13:00;8.98;;;3.92;;
27201;SDS011;14717;46.924;15.474;2023-07-09T01:15:26;9.30;;;4.30;;
27201;SDS011;14717;46.924;15.474;2023-07-09T01:17:52;6.90;;;4.13;;
27201;SDS011;14717;46.924;15.474;2023-07-09T01:20:19;6.47;;;3.92;;
27201;SDS011;14717;46.924;15.474;2023-07-09T01:22:47;6.65;;;4.50;;
27201;SDS011;14717;46.924;15.474;2023-07-09T01:25:14;8.45;;;3.97;;
27201;SDS011;14717;46.924;15.474;2023-07-09T01:27:41;7.10;;;4.28;;
27201;SDS011;14717;46.924;15.474;2023-07-09T01:30:13;7.40;;;3.97;;
27201;SDS011;14717;46.924;15.474;2023-07-09T01:32:40;9.70;;;4.32;;
27201;SDS011;14717;46.924;15.474;2023-07-09T01:35:10;6.53;;;3.95;;
27201;SDS011;14717;46.924;15.474;2023-07-09T01:37:39;6.22;;;3.72;;
27201;SDS011;14717;46.924;15.474;2023-07-09T01:40:06;8.45;;;4.15;;
27201;SDS011;14717;46.924;15.474;2023-07-09T01:42:34;8.90;;;4.55;;
27201;SDS011;14717;46.924;15.474;2023-07-09T01:45:03;7.63;;;4.07;;
27201;SDS011;14717;46.924;15.474;2023-07-09T01:47:29;7.25;;;4.05;;
27201;SDS011;14717;46.924;15.474;2023-07-09T01:49:55;5.72;;;3.75;;
27201;SDS011;14717;46.924;15.474;2023-07-09T01:52:25;6.78;;;4.20;;
27201;SDS011;14717;46.924;15.474;2023-07-09T01:54:53;9.13;;;4.57;;
27201;SDS011;14717;46.924;15.474;2023-07-09T01:59:48;5.72;;;3.65;;
27201;SDS011;14717;46.924;15.474;2023-07-09T02:02:14;9.70;;;4.03;;
27201;SDS011;14717;46.924;15.474;2023-07-09T02:04:46;7.28;;;4.03;;
27201;SDS011;14717;46.924;15.474;2023-07-09T02:07:16;8.48;;;4.25;;
27201;SDS011;14717;46.924;15.474;2023-07-09T02:09:42;7.65;;;3.95;;
27201;SDS011;14717;46.924;15.474;2023-07-09T02:12:08;8.38;;;4.03;;
27201;SDS011;14717;46.924;15.474;2023-07-09T02:14:34;7.07;;;4.32;;
27201;SDS011;14717;46.924;15.474;2023-07-09T02:17:00;9.07;;;4.00;;
27201;SDS011;14717;46.924;15.474;2023-07-09T02:19:25;6.28;;;4.10;;
27201;SDS011;14717;46.924;15.474;2023-07-09T02:21:50;7.03;;;3.85;;
27201;SDS011;14717;46.924;15.474;2023-07-09T02:24:16;7.20;;;4.35;;
27201;SDS011;14717;46.924;15.474;2023-07-09T02:26:41;7.47;;;4.30;;
27201;SDS011;14717;46.924;15.474;2023-07-09T02:29:06;6.78;;;3.85;;
27201;SDS011;14717;46.924;15.474;2023-07-09T02:31:32;7.88;;;4.00;;
27201;SDS011;14717;46.924;15.474;2023-07-09T02:33:58;6.78;;;3.83;;
27201;SDS011;14717;46.924;15.474;2023-07-09T02:36:25;7.28;;;3.90;;
27201;SDS011;14717;46.924;15.474;2023-07-09T02:38:50;6.53;;;3.72;;
27201;SDS011;14717;46.924;15.474;2023-07-09T02:41:16;6.10;;;3.80;;
27201;SDS011;14717;46.924;15.474;2023-07-09T02:43:41;7.60;;;3.67;;
27201;SDS011;14717;46.924;15.474;2023-07-09T02:46:07;7.05;;;3.83;;
27201;SDS011;14717;46.924;15.474;2023-07-09T02:48:32;6.60;;;3.70;;
27201;SDS011;14717;46.924;15.474;2023-07-09T02:50:58;7.20;;;3.90;;
27201;SDS011;14717;46.924;15.474;2023-07-09T02:53:23;8.25;;;4.65;;
27201;SDS011;14717;46.924;15.474;2023-07-09T02:55:48;6.47;;;3.72;;
27201;SDS011;14717;46.924;15.474;2023-07-09T02:58:14;6.82;;;4.20;;
27201;SDS011;14717;46.924;15.474;2023-07-09T03:00:39;6.25;;;3.90;;
27201;SDS011;14717;46.924;15.474;2023-07-09T03:03:04;6.57;;;3.42;;
27201;SDS011;14717;46.924;15.474;2023-07-09T03:05:30;7.80;;;3.92;;
27201;SDS011;14717;46.924;15.474;2023-07-09T03:07:55;6.90;;;4.00;;
27201;SDS011;14717;46.924;15.474;2023-07-09T03:10:21;7.15;;;3.92;;
27201;SDS011;14717;46.924;15.474;2023-07-09T03:12:46;6.85;;;3.78;;
27201;SDS011;14717;46.924;15.474;2023-07-09T03:15:11;7.25;;;3.92;;
27201;SDS011;14717;46.924;15.474;2023-07-09T03:17:37;5.97;;;3.75;;
27201;SDS011;14717;46.924;15.474;2023-07-09T03:20:03;6.32;;;3.85;;
27201;SDS011;14717;46.924;15.474;2023-07-09T03:22:29;8.85;;;4.13;;
27201;SDS011;14717;46.924;15.474;2023-07-09T03:24:55;6.40;;;3.80;;
27201;SDS011;14717;46.924;15.474;2023-07-09T03:27:20;10.98;;;4.47;;
27201;SDS011;14717;46.924;15.474;2023-07-09T03:29:46;7.47;;;4.70;;
27201;SDS011;14717;46.924;15.474;2023-07-09T03:32:11;8.18;;;4.43;;
27201;SDS011;14717;46.924;15.474;2023-07-09T03:34:36;7.97;;;4.47;;
27201;SDS011;14717;46.924;15.474;2023-07-09T03:37:02;8.68;;;4.60;;
27201;SDS011;14717;46.924;15.474;2023-07-09T03:39:27;8.13;;;4.40;;
27201;SDS011;14717;46.924;15.474;2023-07-09T03:41:52;8.15;;;4.60;;
27201;SDS011;14717;46.924;15.474;2023-07-09T03:44:18;8.40;;;4.63;;
27201;SDS011;14717;46.924;15.474;2023-07-09T03:46:43;6.70;;;4.28;;
27201;SDS011;14717;46.924;15.474;2023-07-09T03:49:08;9.00;;;4.63;;
27201;SDS011;14717;46.924;15.474;2023-07-09T03:51:34;7.35;;;4.45;;
27201;SDS011;14717;46.924;15.474;2023-07-09T03:53:59;7.55;;;4.32;;
27201;SDS011;14717;46.924;15.474;2023-07-09T03:56:24;7.53;;;4.38;;
27201;SDS011;14717;46.924;15.474;2023-07-09T03:58:50;7.38;;;4.30;;
27201;SDS011;14717;46.924;15.474;2023-07-09T04:01:15;7.95;;;4.18;;
27201;SDS011;14717;46.924;15.474;2023-07-09T04:03:41;7.78;;;4.22;;
27201;SDS011;14717;46.924;15.474;2023-07-09T04:06:07;8.68;;;4.70;;
27201;SDS011;14717;46.924;15.474;2023-07-09T04:08:32;8.13;;;4.45;;
27201;SDS011;14717;46.924;15.474;2023-07-09T04:11:01;8.85;;;4.78;;
27201;SDS011;14717;46.924;15.474;2023-07-09T04:13:27;7.13;;;4.75;;
27201;SDS011;14717;46.924;15.474;2023-07-09T04:15:56;8.70;;;4.85;;
27201;SDS011;14717;46.924;15.474;2023-07-09T04:18:22;10.07;;;4.65;;
27201;SDS011;14717;46.924;15.474;2023-07-09T04:20:48;9.45;;;5.00;;
27201;SDS011;14717;46.924;15.474;2023-07-09T04:23:14;7.05;;;4.55;;
27201;SDS011;14717;46.924;15.474;2023-07-09T04:25:40;10.75;;;4.45;;
27201;SDS011;14717;46.924;15.474;2023-07-09T04:28:05;8.35;;;4.30;;
27201;SDS011;14717;46.924;15.474;2023-07-09T04:30:31;9.57;;;4.40;;
27201;SDS011;14717;46.924;15.474;2023-07-09T04:32:56;7.47;;;4.90;;
27201;SDS011;14717;46.924;15.474;2023-07-09T04:35:22;6.88;;;4.47;;
27201;SDS011;14717;46.924;15.474;2023-07-09T04:37:48;11.50;;;5.05;;
27201;SDS011;14717;46.924;15.474;2023-07-09T04:40:14;9.60;;;4.70;;
27201;SDS011;14717;46.924;15.474;2023-07-09T04:42:40;8.10;;;5.13;;
27201;SDS011;14717;46.924;15.474;2023-07-09T04:45:06;9.50;;;4.60;;
27201;SDS011;14717;46.924;15.474;2023-07-09T04:47:34;7.28;;;4.65;;
27201;SDS011;14717;46.924;15.474;2023-07-09T04:49:59;9.15;;;5.00;;
27201;SDS011;14717;46.924;15.474;2023-07-09T04:52:25;6.45;;;4.25;;
27201;SDS011;14717;46.924;15.474;2023-07-09T04:54:50;9.25;;;4.38;;
27201;SDS011;14717;46.924;15.474;2023-07-09T04:57:16;6.43;;;4.28;;
27201;SDS011;14717;46.924;15.474;2023-07-09T04:59:41;8.05;;;4.63;;
27201;SDS011;14717;46.924;15.474;2023-07-09T05:02:07;8.57;;;4.47;;
27201;SDS011;14717;46.924;15.474;2023-07-09T05:04:33;6.13;;;4.03;;
27201;SDS011;14717;46.924;15.474;2023-07-09T05:06:58;7.72;;;4.32;;
27201;SDS011;14717;46.924;15.474;2023-07-09T05:09:24;8.77;;;4.88;;
27201;SDS011;14717;46.924;15.474;2023-07-09T05:11:49;7.45;;;4.22;;
27201;SDS011;14717;46.924;15.474;2023-07-09T05:14:16;7.43;;;4.13;;
27201;SDS011;14717;46.924;15.474;2023-07-09T05:16:42;8.05;;;4.55;;
27201;SDS011;14717;46.924;15.474;2023-07-09T05:19:09;8.65;;;4.55;;
27201;SDS011;14717;46.924;15.474;2023-07-09T05:21:34;8.18;;;4.22;;
27201;SDS011;14717;46.924;15.474;2023-07-09T05:24:00;6.57;;;4.22;;
27201;SDS011;14717;46.924;15.474;2023-07-09T05:26:25;10.00;;;4.88;;
27201;SDS011;14717;46.924;15.474;2023-07-09T05:28:50;6.30;;;4.38;;
27201;SDS011;14717;46.924;15.474;2023-07-09T05:31:16;9.18;;;4.90;;
27201;SDS011;14717;46.924;15.474;2023-07-09T05:33:41;8.60;;;4.70;;
27201;SDS011;14717;46.924;15.474;2023-07-09T05:36:08;7.03;;;4.20;;
27201;SDS011;14717;46.924;15.474;2023-07-09T05:38:38;8.30;;;4.50;;
27201;SDS011;14717;46.924;15.474;2023-07-09T05:41:04;10.45;;;4.68;;
27201;SDS011;14717;46.924;15.474;2023-07-09T05:43:30;8.13;;;4.47;;
27201;SDS011;14717;46.924;15.474;2023-07-09T05:45:55;8.50;;;4.57;;
27201;SDS011;14717;46.924;15.474;2023-07-09T05:48:21;7.20;;;4.43;;
27201;SDS011;14717;46.924;15.474;2023-07-09T05:50:47;9.32;;;4.60;;
27201;SDS011;14717;46.924;15.474;2023-07-09T05:53:13;7.55;;;4.38;;
27201;SDS011;14717;46.924;15.474;2023-07-09T05:55:39;7.63;;;4.80;;
27201;SDS011;14717;46.924;15.474;2023-07-09T05:58:04;6.88;;;4.28;;
27201;SDS011;14717;46.924;15.474;2023-07-09T06:00:29;8.68;;;4.53;;
27201;SDS011;14717;46.924;15.474;2023-07-09T06:02:55;8.75;;;4.65;;
27201;SDS011;14717;46.924;15.474;2023-07-09T06:05:21;9.30;;;4.78;;
27201;SDS011;14717;46.924;15.474;2023-07-09T06:07:46;6.65;;;4.40;;
27201;SDS011;14717;46.924;15.474;2023-07-09T06:10:12;9.75;;;4.75;;
27201;SDS011;14717;46.924;15.474;2023-07-09T06:12:38;8.00;;;4.78;;
27201;SDS011;14717;46.924;15.474;2023-07-09T06:15:05;10.18;;;4.60;;
27201;SDS011;14717;46.924;15.474;2023-07-09T06:17:31;8.57;;;4.10;;
27201;SDS011;14717;46.924;15.474;2023-07-09T06:19:56;8.32;;;4.40;;
27201;SDS011;14717;46.924;15.474;2023-07-09T06:22:21;8.90;;;4.72;;
27201;SDS011;14717;46.924;15.474;2023-07-09T06:24:47;7.50;;;4.47;;
27201;SDS011;14717;46.924;15.474;2023-07-09T06:27:12;6.75;;;3.97;;
27201;SDS011;14717;46.924;15.474;2023-07-09T06:29:38;7.95;;;4.97;;
27201;SDS011;14717;46.924;15.474;2023-07-09T06:32:03;7.18;;;4.13;;
27201;SDS011;14717;46.924;15.474;2023-07-09T06:34:29;6.97;;;4.68;;
27201;SDS011;14717;46.924;15.474;2023-07-09T06:36:55;9.07;;;4.47;;
27201;SDS011;14717;46.924;15.474;2023-07-09T06:39:21;7.00;;;4.32;;
27201;SDS011;14717;46.924;15.474;2023-07-09T06:41:48;6.95;;;4.30;;
27201;SDS011;14717;46.924;15.474;2023-07-09T06:44:13;10.02;;;4.70;;
27201;SDS011;14717;46.924;15.474;2023-07-09T06:46:39;8.10;;;4.55;;
27201;SDS011;14717;46.924;15.474;2023-07-09T06:49:04;6.40;;;4.18;;
27201;SDS011;14717;46.924;15.474;2023-07-09T06:51:32;7.68;;;4.60;;
27201;SDS011;14717;46.924;15.474;2023-07-09T06:53:58;9.73;;;4.50;;
27201;SDS011;14717;46.924;15.474;2023-07-09T06:56:23;6.82;;;4.20;;
27201;SDS011;14717;46.924;15.474;2023-07-09T06:58:49;5.90;;;3.83;;
27201;SDS011;14717;46.924;15.474;2023-07-09T07:01:14;7.80;;;4.38;;
27201;SDS011;14717;46.924;15.474;2023-07-09T07:03:40;7.75;;;4.07;;
27201;SDS011;14717;46.924;15.474;2023-07-09T07:06:05;7.18;;;4.03;;
27201;SDS011;14717;46.924;15.474;2023-07-09T07:08:32;6.47;;;3.80;;
27201;SDS011;14717;46.924;15.474;2023-07-09T07:10:59;6.55;;;4.13;;
27201;SDS011;14717;46.924;15.474;2023-07-09T07:13:30;7.47;;;3.85;;
27201;SDS011;14717;46.924;15.474;2023-07-09T07:15:57;6.38;;;3.88;;
27201;SDS011;14717;46.924;15.474;2023-07-09T07:18:22;9.98;;;4.30;;
27201;SDS011;14717;46.924;15.474;2023-07-09T07:20:48;7.88;;;3.92;;
27201;SDS011;14717;46.924;15.474;2023-07-09T07:23:14;7.60;;;4.05;;
27201;SDS011;14717;46.924;15.474;2023-07-09T07:25:40;9.43;;;3.72;;
27201;SDS011;14717;46.924;15.474;2023-07-09T07:28:06;7.30;;;4.28;;
27201;SDS011;14717;46.924;15.474;2023-07-09T07:30:31;8.48;;;3.72;;
27201;SDS011;14717;46.924;15.474;2023-07-09T07:32:57;5.93;;;3.78;;
27201;SDS011;14717;46.924;15.474;2023-07-09T07:35:22;8.32;;;3.95;;
27201;SDS011;14717;46.924;15.474;2023-07-09T07:37:48;5.90;;;3.72;;
27201;SDS011;14717;46.924;15.474;2023-07-09T07:40:13;8.35;;;4.38;;
27201;SDS011;14717;46.924;15.474;2023-07-09T07:42:39;8.88;;;4.30;;
27201;SDS011;14717;46.924;15.474;2023-07-09T07:45:04;8.30;;;4.20;;
27201;SDS011;14717;46.924;15.474;2023-07-09T07:47:32;6.00;;;3.50;;
27201;SDS011;14717;46.924;15.474;2023-07-09T07:49:58;5.82;;;3.70;;
27201;SDS011;14717;46.924;15.474;2023-07-09T07:52:24;7.80;;;3.85;;
27201;SDS011;14717;46.924;15.474;2023-07-09T07:54:50;6.20;;;4.05;;
27201;SDS011;14717;46.924;15.474;2023-07-09T07:57:17;6.80;;;3.72;;
27201;SDS011;14717;46.924;15.474;2023-07-09T07:59:43;8.98;;;4.47;;
27201;SDS011;14717;46.924;15.474;2023-07-09T08:02:13;8.63;;;4.22;;
27201;SDS011;14717;46.924;15.474;2023-07-09T08:04:40;6.05;;;3.70;;
27201;SDS011;14717;46.924;15.474;2023-07-09T08:07:09;7.07;;;3.60;;
27201;SDS011;14717;46.924;15.474;2023-07-09T08:09:35;7.53;;;3.83;;
27201;SDS011;14717;46.924;15.474;2023-07-09T08:12:02;7.15;;;4.07;;
27201;SDS011;14717;46.924;15.474;2023-07-09T08:14:34;6.60;;;4.10;;
27201;SDS011;14717;46.924;15.474;2023-07-09T08:16:59;6.72;;;3.90;;
27201;SDS011;14717;46.924;15.474;2023-07-09T08:19:25;10.82;;;4.30;;
27201;SDS011;14717;46.924;15.474;2023-07-09T08:21:50;10.32;;;4.55;;
27201;SDS011;14717;46.924;15.474;2023-07-09T08:24:16;7.22;;;4.18;;
27201;SDS011;14717;46.924;15.474;2023-07-09T08:26:41;5.72;;;3.72;;
27201;SDS011;14717;46.924;15.474;2023-07-09T08:29:06;6.25;;;3.92;;
27201;SDS011;14717;46.924;15.474;2023-07-09T08:31:32;6.15;;;4.15;;
27201;SDS011;14717;46.924;15.474;2023-07-09T08:33:57;6.85;;;3.95;;
27201;SDS011;14717;46.924;15.474;2023-07-09T08:36:23;6.43;;;3.78;;
27201;SDS011;14717;46.924;15.474;2023-07-09T08:38:48;6.78;;;3.75;;
27201;SDS011;14717;46.924;15.474;2023-07-09T08:41:20;8.00;;;3.90;;
27201;SDS011;14717;46.924;15.474;2023-07-09T08:49:14;6.20;;;3.58;;
27201;SDS011;14717;46.924;15.474;2023-07-09T08:51:45;7.50;;;4.45;;
27201;SDS011;14717;46.924;15.474;2023-07-09T08:54:34;10.10;;;4.45;;
27201;SDS011;14717;46.924;15.474;2023-07-09T08:57:36;6.50;;;4.03;;
27201;SDS011;14717;46.924;15.474;2023-07-09T09:00:14;6.45;;;4.22;;
27201;SDS011;14717;46.924;15.474;2023-07-09T09:02:56;7.78;;;4.25;;
27201;SDS011;14717;46.924;15.474;2023-07-09T09:05:30;8.93;;;4.45;;
27201;SDS011;14717;46.924;15.474;2023-07-09T09:08:03;9.30;;;4.70;;
27201;SDS011;14717;46.924;15.474;2023-07-09T09:10:53;7.05;;;4.07;;
27201;SDS011;14717;46.924;15.474;2023-07-09T09:13:27;8.02;;;4.63;;
27201;SDS011;14717;46.924;15.474;2023-07-09T09:15:54;6.97;;;4.35;;
27201;SDS011;14717;46.924;15.474;2023-07-09T09:18:25;5.90;;;4.10;;
27201;SDS011;14717;46.924;15.474;2023-07-09T09:20:57;8.63;;;4.15;;
27201;SDS011;14717;46.924;15.474;2023-07-09T09:23:28;6.60;;;3.83;;
27201;SDS011;14717;46.924;15.474;2023-07-09T09:26:02;7.35;;;4.15;;
27201;SDS011;14717;46.924;15.474;2023-07-09T09:28:43;6.72;;;3.88;;
27201;SDS011;14717;46.924;15.474;2023-07-09T09:31:11;7.53;;;3.83;;
27201;SDS011;14717;46.924;15.474;2023-07-09T09:33:41;6.47;;;4.00;;
27201;SDS011;14717;46.924;15.474;2023-07-09T09:36:14;5.90;;;3.40;;
27201;SDS011;14717;46.924;15.474;2023-07-09T09:38:45;7.57;;;3.90;;
27201;SDS011;14717;46.924;15.474;2023-07-09T09:41:17;8.85;;;3.97;;
27201;SDS011;14717;46.924;15.474;2023-07-09T09:43:48;6.45;;;3.92;;
27201;SDS011;14717;46.924;15.474;2023-07-09T09:46:16;6.70;;;4.00;;
27201;SDS011;14717;46.924;15.474;2023-07-09T09:48:47;7.13;;;4.25;;
27201;SDS011;14717;46.924;15.474;2023-07-09T09:51:15;6.22;;;3.65;;
27201;SDS011;14717;46.924;15.474;2023-07-09T09:53:45;8.55;;;3.90;;
27201;SDS011;14717;46.924;15.474;2023-07-09T09:56:19;7.80;;;3.88;;
27201;SDS011;14717;46.924;15.474;2023-07-09T09:58:51;5.97;;;3.75;;
27201;SDS011;14717;46.924;15.474;2023-07-09T10:01:18;7.15;;;3.92;;
27201;SDS011;14717;46.924;15.474;2023-07-09T10:03:46;6.95;;;3.90;;
27201;SDS011;14717;46.924;15.474;2023-07-09T10:06:17;6.82;;;3.88;;
27201;SDS011;14717;46.924;15.474;2023-07-09T10:11:35;7.53;;;3.72;;
27201;SDS011;14717;46.924;15.474;2023-07-09T10:19:57;7.82;;;4.00;;
27201;SDS011;14717;46.924;15.474;2023-07-09T10:22:28;7.10;;;4.07;;
27201;SDS011;14717;46.924;15.474;2023-07-09T10:25:38;6.85;;;3.80;;
27201;SDS011;14717;46.924;15.474;2023-07-09T10:31:20;6.88;;;3.90;;
27201;SDS011;14717;46.924;15.474;2023-07-09T10:33:54;6.85;;;4.07;;
27201;SDS011;14717;46.924;15.474;2023-07-09T10:36:50;5.18;;;3.55;;
27201;SDS011;14717;46.924;15.474;2023-07-09T10:39:34;4.82;;;3.35;;
27201;SDS011;14717;46.924;15.474;2023-07-09T10:42:02;6.28;;;3.83;;
27201;SDS011;14717;46.924;15.474;2023-07-09T10:44:35;5.32;;;3.67;;
27201;SDS011;14717;46.924;15.474;2023-07-09T10:47:07;6.47;;;3.78;;
27201;SDS011;14717;46.924;15.474;2023-07-09T10:49:39;6.05;;;3.80;;
27201;SDS011;14717;46.924;15.474;2023-07-09T10:52:11;5.55;;;3.65;;
27201;SDS011;14717;46.924;15.474;2023-07-09T10:54:53;5.93;;;3.80;;
27201;SDS011;14717;46.924;15.474;2023-07-09T10:57:48;6.18;;;3.60;;
27201;SDS011;14717;46.924;15.474;2023-07-09T11:00:29;7.93;;;4.20;;
27201;SDS011;14717;46.924;15.474;2023-07-09T11:03:01;5.82;;;3.60;;
27201;SDS011;14717;46.924;15.474;2023-07-09T11:05:30;8.40;;;3.90;;
27201;SDS011;14717;46.924;15.474;2023-07-09T11:08:02;6.28;;;3.88;;
27201;SDS011;14717;46.924;15.474;2023-07-09T11:13:12;5.85;;;3.72;;
27201;SDS011;14717;46.924;15.474;2023-07-09T11:15:43;5.88;;;3.75;;
27201;SDS011;14717;46.924;15.474;2023-07-09T11:18:13;6.07;;;3.65;;
27201;SDS011;14717;46.924;15.474;2023-07-09T11:20:45;5.43;;;3.50;;
27201;SDS011;14717;46.924;15.474;2023-07-09T11:23:22;6.28;;;3.83;;
27201;SDS011;14717;46.924;15.474;2023-07-09T11:26:03;5.45;;;3.55;;
27201;SDS011;14717;46.924;15.474;2023-07-09T11:28:38;5.60;;;3.83;;
27201;SDS011;14717;46.924;15.474;2023-07-09T11:31:06;6.65;;;3.78;;
27201;SDS011;14717;46.924;15.474;2023-07-09T11:33:33;5.80;;;3.67;;
27201;SDS011;14717;46.924;15.474;2023-07-09T11:36:09;8.23;;;3.63;;
27201;SDS011;14717;46.924;15.474;2023-07-09T11:38:44;5.20;;;3.38;;
27201;SDS011;14717;46.924;15.474;2023-07-09T11:44:09;5.28;;;3.90;;
27201;SDS011;14717;46.924;15.474;2023-07-09T11:46:58;6.07;;;3.67;;
27201;SDS011;14717;46.924;15.474;2023-07-09T11:50:04;5.63;;;3.47;;
27201;SDS011;14717;46.924;15.474;2023-07-09T11:52:58;7.95;;;3.85;;
27201;SDS011;14717;46.924;15.474;2023-07-09T11:55:27;7.43;;;3.70;;
27201;SDS011;14717;46.924;15.474;2023-07-09T11:57:59;4.65;;;3.13;;
27201;SDS011;14717;46.924;15.474;2023-07-09T12:00:40;6.13;;;3.63;;
27201;SDS011;14717;46.924;15.474;2023-07-09T12:03:18;6.72;;;3.88;;
27201;SDS011;14717;46.924;15.474;2023-07-09T12:05:49;7.35;;;4.10;;
27201;SDS011;14717;46.924;15.474;2023-07-09T12:08:16;6.45;;;3.33;;
27201;SDS011;14717;46.924;15.474;2023-07-09T12:10:44;5.40;;;3.38;;
27201;SDS011;14717;46.924;15.474;2023-07-09T12:13:09;6.28;;;3.47;;
27201;SDS011;14717;46.924;15.474;2023-07-09T12:15:38;7.30;;;3.33;;
27201;SDS011;14717;46.924;15.474;2023-07-09T12:18:09;6.50;;;3.42;;
27201;SDS011;14717;46.924;15.474;2023-07-09T12:20:37;5.53;;;3.67;;
27201;SDS011;14717;46.924;15.474;2023-07-09T12:25:48;6.85;;;3.80;;
27201;SDS011;14717;46.924;15.474;2023-07-09T12:28:15;5.68;;;3.58;;
27201;SDS011;14717;46.924;15.474;2023-07-09T12:30:44;6.75;;;3.38;;
27201;SDS011;14717;46.924;15.474;2023-07-09T12:33:20;5.28;;;3.28;;
27201;SDS011;14717;46.924;15.474;2023-07-09T12:35:49;5.97;;;3.80;;
27201;SDS011;14717;46.924;15.474;2023-07-09T12:38:25;5.28;;;3.40;;
27201;SDS011;14717;46.924;15.474;2023-07-09T12:40:53;5.72;;;3.50;;
27201;SDS011;14717;46.924;15.474;2023-07-09T12:43:28;5.93;;;3.40;;
27201;SDS011;14717;46.924;15.474;2023-07-09T12:45:56;6.05;;;3.50;;
27201;SDS011;14717;46.924;15.474;2023-07-09T12:48:25;5.70;;;3.22;;
27201;SDS011;14717;46.924;15.474;2023-07-09T12:50:56;5.43;;;3.30;;
27201;SDS011;14717;46.924;15.474;2023-07-09T12:53:24;5.25;;;3.38;;
27201;SDS011;14717;46.924;15.474;2023-07-09T12:55:51;9.88;;;3.80;;
27201;SDS011;14717;46.924;15.474;2023-07-09T12:58:22;5.75;;;3.45;;
27201;SDS011;14717;46.924;15.474;2023-07-09T13:00:50;7.10;;;3.45;;
27201;SDS011;14717;46.924;15.474;2023-07-09T13:03:21;6.28;;;3.67;;
27201;SDS011;14717;46.924;15.474;2023-07-09T13:05:58;4.80;;;3.50;;
27201;SDS011;14717;46.924;15.474;2023-07-09T13:08:26;6.80;;;3.40;;
27201;SDS011;14717;46.924;15.474;2023-07-09T13:10:53;7.57;;;3.75;;
27201;SDS011;14717;46.924;15.474;2023-07-09T13:13:20;4.88;;;3.28;;
27201;SDS011;14717;46.924;15.474;2023-07-09T13:15:51;6.00;;;3.45;;
27201;SDS011;14717;46.924;15.474;2023-07-09T13:18:22;5.90;;;3.40;;
27201;SDS011;14717;46.924;15.474;2023-07-09T13:20:48;6.18;;;3.72;;
27201;SDS011;14717;46.924;15.474;2023-07-09T13:23:23;4.82;;;3.33;;
27201;SDS011;14717;46.924;15.474;2023-07-09T13:25:50;5.85;;;3.53;;
27201;SDS011;14717;46.924;15.474;2023-07-09T13:28:25;6.80;;;3.55;;
27201;SDS011;14717;46.924;15.474;2023-07-09T13:30:54;6.70;;;3.08;;
27201;SDS011;14717;46.924;15.474;2023-07-09T13:33:22;6.75;;;3.72;;
27201;SDS011;14717;46.924;15.474;2023-07-09T13:35:48;8.18;;;3.83;;
27201;SDS011;14717;46.924;15.474;2023-07-09T13:38:14;6.43;;;3.70;;
27201;SDS011;14717;46.924;15.474;2023-07-09T13:40:42;5.60;;;3.60;;
27201;SDS011;14717;46.924;15.474;2023-07-09T13:43:11;7.15;;;3.60;;
27201;SDS011;14717;46.924;15.474;2023-07-09T13:45:38;4.70;;;3.40;;
27201;SDS011;14717;46.924;15.474;2023-07-09T13:48:07;6.47;;;3.83;;
27201;SDS011;14717;46.924;15.474;2023-07-09T13:50:39;4.93;;;3.45;;
27201;SDS011;14717;46.924;15.474;2023-07-09T13:53:08;7.38;;;3.92;;
27201;SDS011;14717;46.924;15.474;2023-07-09T13:55:38;6.50;;;3.58;;
27201;SDS011;14717;46.924;15.474;2023-07-09T13:58:03;5.32;;;3.13;;
27201;SDS011;14717;46.924;15.474;2023-07-09T14:00:29;7.63;;;3.88;;
27201;SDS011;14717;46.924;15.474;2023-07-09T14:02:54;4.93;;;3.30;;
27201;SDS011;14717;46.924;15.474;2023-07-09T14:05:20;5.95;;;3.55;;
27201;SDS011;14717;46.924;15.474;2023-07-09T14:07:46;5.20;;;3.38;;
27201;SDS011;14717;46.924;15.474;2023-07-09T14:10:12;5.15;;;3.40;;
27201;SDS011;14717;46.924;15.474;2023-07-09T14:12:42;5.43;;;2.90;;
27201;SDS011;14717;46.924;15.474;2023-07-09T14:15:14;6.95;;;3.65;;
27201;SDS011;14717;46.924;15.474;2023-07-09T14:17:42;6.72;;;3.60;;
27201;SDS011;14717;46.924;15.474;2023-07-09T14:20:12;6.32;;;4.15;;
27201;SDS011;14717;46.924;15.474;2023-07-09T14:22:41;6.80;;;3.58;;
27201;SDS011;14717;46.924;15.474;2023-07-09T14:25:09;5.72;;;3.42;;
27201;SDS011;14717;46.924;15.474;2023-07-09T14:27:40;6.10;;;3.58;;
27201;SDS011;14717;46.924;15.474;2023-07-09T14:30:06;6.53;;;4.10;;
27201;SDS011;14717;46.924;15.474;2023-07-09T14:32:33;5.90;;;3.70;;
27201;SDS011;14717;46.924;15.474;2023-07-09T14:35:02;7.07;;;3.65;;
27201;SDS011;14717;46.924;15.474;2023-07-09T14:37:29;7.03;;;3.63;;
27201;SDS011;14717;46.924;15.474;2023-07-09T14:39:54;5.80;;;3.70;;
27201;SDS011;14717;46.924;15.474;2023-07-09T14:42:20;6.80;;;3.70;;
27201;SDS011;14717;46.924;15.474;2023-07-09T14:44:47;6.53;;;3.85;;
27201;SDS011;14717;46.924;15.474;2023-07-09T14:47:17;5.93;;;3.53;;
27201;SDS011;14717;46.924;15.474;2023-07-09T14:49:44;5.55;;;3.40;;
27201;SDS011;14717;46.924;15.474;2023-07-09T14:52:18;6.90;;;4.10;;
27201;SDS011;14717;46.924;15.474;2023-07-09T14:54:46;6.88;;;3.25;;
27201;SDS011;14717;46.924;15.474;2023-07-09T14:57:17;6.75;;;3.50;;
27201;SDS011;14717;46.924;15.474;2023-07-09T14:59:46;5.85;;;3.67;;
27201;SDS011;14717;46.924;15.474;2023-07-09T15:02:55;6.45;;;3.70;;
27201;SDS011;14717;46.924;15.474;2023-07-09T15:05:12;5.35;;;3.45;;
27201;SDS011;14717;46.924;15.474;2023-07-09T15:07:42;6.93;;;3.90;;
27201;SDS011;14717;46.924;15.474;2023-07-09T15:10:17;7.00;;;3.63;;
27201;SDS011;14717;46.924;15.474;2023-07-09T15:12:45;6.97;;;3.47;;
27201;SDS011;14717;46.924;15.474;2023-07-09T15:15:12;6.88;;;3.60;;
27201;SDS011;14717;46.924;15.474;2023-07-09T15:17:41;5.93;;;3.40;;